sensor_id;sensor_type;location;lat;lon;timestamp;pressure;altitude;pressure_sealevel;temperature;humidity
59106;BME280;44891;50.204;8.132;2023-01-08T00:01:09;97412.75;;;9.01;95.07
59106;BME280;44891;50.204;8.132;2023-01-08T00:05:11;97417.56;;;9.09;94.40
59106;BME280;44891;50.204;8.132;2023-01-08T00:09:14;97414.19;;;9.14;94.17
59106;BME280;44891;50.204;8.132;2023-01-08T00:13:16;97398.47;;;9.14;94.95
59106;BME280;44891;50.204;8.132;2023-01-08T00:17:18;97401.59;;;9.11;95.23
59106;BME280;44891;50.204;8.132;2023-01-08T00:21:20;97390.09;;;9.12;95.23
59106;BME280;44891;50.204;8.132;2023-01-08T00:25:23;97383.25;;;9.11;95.97
59106;BME280;44891;50.204;8.132;2023-01-08T00:29:25;97377.53;;;9.14;95.01
59106;BME280;44891;50.204;8.132;2023-01-08T00:33:27;97373.03;;;9.09;95.50
59106;BME280;44891;50.204;8.132;2023-01-08T00:37:28;97367.25;;;9.07;95.83
59106;BME280;44891;50.204;8.132;2023-01-08T00:41:32;97361.47;;;9.05;96.53
59106;BME280;44891;50.204;8.132;2023-01-08T00:45:34;97362.56;;;9.09;96.21
59106;BME280;44891;50.204;8.132;2023-01-08T00:49:36;97353.66;;;9.10;96.08
59106;BME280;44891;50.204;8.132;2023-01-08T00:53:37;97359.69;;;9.11;95.54
59106;BME280;44891;50.204;8.132;2023-01-08T00:57:41;97358.94;;;9.15;95.05
59106;BME280;44891;50.204;8.132;2023-01-08T01:01:42;97352.16;;;9.19;95.31
59106;BME280;44891;50.204;8.132;2023-01-08T01:05:44;97352.38;;;9.13;95.52
59106;BME280;44891;50.204;8.132;2023-01-08T01:09:46;97365.75;;;9.16;95.22
59106;BME280;44891;50.204;8.132;2023-01-08T01:13:49;97360.81;;;9.20;95.34
59106;BME280;44891;50.204;8.132;2023-01-08T01:17:52;97360.50;;;9.16;95.78
59106;BME280;44891;50.204;8.132;2023-01-08T01:21:53;97372.88;;;9.21;95.96
59106;BME280;44891;50.204;8.132;2023-01-08T01:25:55;97368.94;;;9.18;96.28
59106;BME280;44891;50.204;8.132;2023-01-08T01:29:59;97367.88;;;9.19;96.44
59106;BME280;44891;50.204;8.132;2023-01-08T01:34:01;97368.94;;;9.18;97.04
59106;BME280;44891;50.204;8.132;2023-01-08T01:38:03;97365.31;;;9.24;96.51
59106;BME280;44891;50.204;8.132;2023-01-08T01:42:04;97364.50;;;9.24;97.49
59106;BME280;44891;50.204;8.132;2023-01-08T01:46:34;97369.22;;;9.22;97.62
59106;BME280;44891;50.204;8.132;2023-01-08T01:50:39;97369.50;;;9.25;97.06
59106;BME280;44891;50.204;8.132;2023-01-08T01:54:42;97376.59;;;9.25;97.30
59106;BME280;44891;50.204;8.132;2023-01-08T01:58:44;97375.81;;;9.30;97.31
59106;BME280;44891;50.204;8.132;2023-01-08T02:02:47;97372.44;;;9.34;96.47
59106;BME280;44891;50.204;8.132;2023-01-08T02:06:51;97369.31;;;9.32;96.52
59106;BME280;44891;50.204;8.132;2023-01-08T02:10:57;97374.53;;;9.32;96.81
59106;BME280;44891;50.204;8.132;2023-01-08T02:15:03;97363.28;;;9.37;96.53
59106;BME280;44891;50.204;8.132;2023-01-08T02:19:12;97351.75;;;9.33;96.29
59106;BME280;44891;50.204;8.132;2023-01-08T02:23:18;97342.53;;;9.30;96.63
59106;BME280;44891;50.204;8.132;2023-01-08T02:27:23;97336.28;;;9.31;96.87
59106;BME280;44891;50.204;8.132;2023-01-08T02:31:26;97324.97;;;9.25;97.84
59106;BME280;44891;50.204;8.132;2023-01-08T02:35:32;97322.84;;;9.22;99.31
59106;BME280;44891;50.204;8.132;2023-01-08T02:39:44;97320.19;;;9.17;99.66
59106;BME280;44891;50.204;8.132;2023-01-08T02:43:50;97321.75;;;9.13;100.00
59106;BME280;44891;50.204;8.132;2023-01-08T02:47:54;97312.78;;;9.09;100.00
59106;BME280;44891;50.204;8.132;2023-01-08T02:52:01;97296.06;;;9.15;100.00
59106;BME280;44891;50.204;8.132;2023-01-08T02:56:04;97294.72;;;9.08;100.00
59106;BME280;44891;50.204;8.132;2023-01-08T03:00:09;97281.09;;;9.06;100.00
59106;BME280;44891;50.204;8.132;2023-01-08T03:04:12;97279.00;;;9.08;100.00
59106;BME280;44891;50.204;8.132;2023-01-08T03:08:16;97273.19;;;9.01;100.00
59106;BME280;44891;50.204;8.132;2023-01-08T03:12:20;97263.72;;;8.94;100.00
59106;BME280;44891;50.204;8.132;2023-01-08T03:16:26;97266.06;;;8.96;100.00
59106;BME280;44891;50.204;8.132;2023-01-08T03:20:30;97263.97;;;8.93;100.00
59106;BME280;44891;50.204;8.132;2023-01-08T03:24:33;97261.84;;;8.90;100.00
59106;BME280;44891;50.204;8.132;2023-01-08T03:28:39;97261.81;;;8.85;100.00
59106;BME280;44891;50.204;8.132;2023-01-08T03:32:44;97264.91;;;8.82;100.00
59106;BME280;44891;50.204;8.132;2023-01-08T03:36:48;97258.09;;;8.81;100.00
59106;BME280;44891;50.204;8.132;2023-01-08T03:40:53;97262.72;;;8.68;100.00
59106;BME280;44891;50.204;8.132;2023-01-08T03:44:57;97264.81;;;8.66;100.00
59106;BME280;44891;50.204;8.132;2023-01-08T03:49:00;97252.75;;;8.65;100.00
59106;BME280;44891;50.204;8.132;2023-01-08T03:53:02;97249.63;;;8.68;100.00
59106;BME280;44891;50.204;8.132;2023-01-08T03:57:04;97239.66;;;8.65;100.00
59106;BME280;44891;50.204;8.132;2023-01-08T04:01:06;97237.31;;;8.69;100.00
59106;BME280;44891;50.204;8.132;2023-01-08T04:05:09;97233.41;;;8.66;100.00
59106;BME280;44891;50.204;8.132;2023-01-08T04:09:11;97231.81;;;8.65;100.00
59106;BME280;44891;50.204;8.132;2023-01-08T04:13:13;97222.09;;;8.61;100.00
59106;BME280;44891;50.204;8.132;2023-01-08T04:17:15;97224.19;;;8.64;100.00
59106;BME280;44891;50.204;8.132;2023-01-08T04:21:18;97223.97;;;8.65;100.00
59106;BME280;44891;50.204;8.132;2023-01-08T04:25:20;97214.03;;;8.67;100.00
59106;BME280;44891;50.204;8.132;2023-01-08T04:29:22;97212.16;;;8.63;100.00
59106;BME280;44891;50.204;8.132;2023-01-08T04:33:24;97208.75;;;8.62;100.00
59106;BME280;44891;50.204;8.132;2023-01-08T04:37:27;97216.56;;;8.57;100.00
59106;BME280;44891;50.204;8.132;2023-01-08T04:41:29;97204.25;;;8.58;100.00
59106;BME280;44891;50.204;8.132;2023-01-08T04:45:31;97207.44;;;8.60;100.00
59106;BME280;44891;50.204;8.132;2023-01-08T04:49:33;97195.66;;;8.62;100.00
59106;BME280;44891;50.204;8.132;2023-01-08T04:53:36;97193.84;;;8.63;100.00
59106;BME280;44891;50.204;8.132;2023-01-08T04:57:40;97198.50;;;8.56;100.00
59106;BME280;44891;50.204;8.132;2023-01-08T05:01:41;97200.56;;;8.54;100.00
59106;BME280;44891;50.204;8.132;2023-01-08T05:05:43;97193.56;;;8.59;100.00
59106;BME280;44891;50.204;8.132;2023-01-08T05:09:46;97185.19;;;8.62;100.00
59106;BME280;44891;50.204;8.132;2023-01-08T05:13:48;97186.50;;;8.60;100.00
59106;BME280;44891;50.204;8.132;2023-01-08T05:17:56;97182.03;;;8.60;100.00
59106;BME280;44891;50.204;8.132;2023-01-08T05:21:58;97183.56;;;8.56;100.00
59106;BME280;44891;50.204;8.132;2023-01-08T05:26:02;97190.63;;;8.56;100.00
59106;BME280;44891;50.204;8.132;2023-01-08T05:30:05;97187.78;;;8.57;100.00
59106;BME280;44891;50.204;8.132;2023-01-08T05:34:07;97178.88;;;8.58;100.00
59106;BME280;44891;50.204;8.132;2023-01-08T05:38:08;97187.78;;;8.57;100.00
59106;BME280;44891;50.204;8.132;2023-01-08T05:42:12;97175.72;;;8.56;100.00
59106;BME280;44891;50.204;8.132;2023-01-08T05:46:13;97181.16;;;8.50;100.00
59106;BME280;44891;50.204;8.132;2023-01-08T05:50:15;97190.91;;;8.54;100.00
59106;BME280;44891;50.204;8.132;2023-01-08T05:54:17;97179.91;;;8.52;100.00
59106;BME280;44891;50.204;8.132;2023-01-08T05:58:20;97177.97;;;8.42;100.00
59106;BME280;44891;50.204;8.132;2023-01-08T06:02:22;97179.75;;;8.37;100.00
59106;BME280;44891;50.204;8.132;2023-01-08T06:06:24;97164.06;;;8.37;100.00
59106;BME280;44891;50.204;8.132;2023-01-08T06:10:26;97162.53;;;8.41;100.00
59106;BME280;44891;50.204;8.132;2023-01-08T06:14:30;97161.44;;;8.37;100.00
59106;BME280;44891;50.204;8.132;2023-01-08T06:18:31;97171.91;;;8.37;100.00
59106;BME280;44891;50.204;8.132;2023-01-08T06:22:33;97162.22;;;8.37;100.00
59106;BME280;44891;50.204;8.132;2023-01-08T06:26:35;97158.56;;;8.38;100.00
59106;BME280;44891;50.204;8.132;2023-01-08T06:30:38;97168.50;;;8.36;100.00
59106;BME280;44891;50.204;8.132;2023-01-08T06:34:40;97153.91;;;8.40;100.00
59106;BME280;44891;50.204;8.132;2023-01-08T06:38:42;97161.19;;;8.38;100.00
59106;BME280;44891;50.204;8.132;2023-01-08T06:42:44;97173.97;;;8.35;100.00
59106;BME280;44891;50.204;8.132;2023-01-08T06:46:47;97179.50;;;8.38;100.00
59106;BME280;44891;50.204;8.132;2023-01-08T06:50:49;97176.41;;;8.41;100.00
59106;BME280;44891;50.204;8.132;2023-01-08T06:54:51;97174.03;;;8.40;100.00
59106;BME280;44891;50.204;8.132;2023-01-08T06:58:52;97177.13;;;8.37;100.00
59106;BME280;44891;50.204;8.132;2023-01-08T07:02:56;97176.56;;;8.35;100.00
59106;BME280;44891;50.204;8.132;2023-01-08T07:06:57;97182.28;;;8.32;100.00
59106;BME280;44891;50.204;8.132;2023-01-08T07:11:00;97184.13;;;8.31;100.00
59106;BME280;44891;50.204;8.132;2023-01-08T07:15:02;97185.94;;;8.31;100.00
59106;BME280;44891;50.204;8.132;2023-01-08T07:19:05;97182.28;;;8.32;100.00
59106;BME280;44891;50.204;8.132;2023-01-08T07:23:08;97203.66;;;8.24;100.00
59106;BME280;44891;50.204;8.132;2023-01-08T07:27:10;97195.38;;;8.32;100.00
59106;BME280;44891;50.204;8.132;2023-01-08T07:31:12;97197.50;;;8.35;100.00
59106;BME280;44891;50.204;8.132;2023-01-08T07:35:15;97192.84;;;8.37;100.00
59106;BME280;44891;50.204;8.132;2023-01-08T07:39:17;97200.19;;;8.40;100.00
59106;BME280;44891;50.204;8.132;2023-01-08T07:43:19;97187.66;;;8.42;100.00
59106;BME280;44891;50.204;8.132;2023-01-08T07:47:21;97191.31;;;8.41;100.00
59106;BME280;44891;50.204;8.132;2023-01-08T07:51:24;97209.13;;;8.44;100.00
59106;BME280;44891;50.204;8.132;2023-01-08T07:55:26;97218.50;;;8.40;100.00
59106;BME280;44891;50.204;8.132;2023-01-08T07:59:28;97215.09;;;8.39;100.00
59106;BME280;44891;50.204;8.132;2023-01-08T08:03:30;97196.97;;;8.33;100.00
59106;BME280;44891;50.204;8.132;2023-01-08T08:07:33;97202.03;;;8.39;100.00
59106;BME280;44891;50.204;8.132;2023-01-08T08:11:36;97198.63;;;8.39;100.00
59106;BME280;44891;50.204;8.132;2023-01-08T08:15:38;97197.06;;;8.43;100.00
59106;BME280;44891;50.204;8.132;2023-01-08T08:19:40;97195.28;;;8.49;100.00
59106;BME280;44891;50.204;8.132;2023-01-08T08:23:45;97189.75;;;8.45;100.00
59106;BME280;44891;50.204;8.132;2023-01-08T08:27:46;97201.25;;;8.44;100.00
59106;BME280;44891;50.204;8.132;2023-01-08T08:31:48;97194.19;;;8.44;100.00
59106;BME280;44891;50.204;8.132;2023-01-08T08:35:50;97188.44;;;8.42;100.00
59106;BME280;44891;50.204;8.132;2023-01-08T08:39:53;97191.06;;;8.42;100.00
59106;BME280;44891;50.204;8.132;2023-01-08T08:43:55;97201.78;;;8.41;100.00
59106;BME280;44891;50.204;8.132;2023-01-08T08:47:57;97197.81;;;8.38;100.00
59106;BME280;44891;50.204;8.132;2023-01-08T08:52:01;97147.53;;;8.04;100.00
59106;BME280;44891;50.204;8.132;2023-01-08T08:56:04;97188.16;;;8.39;100.00
59106;BME280;44891;50.204;8.132;2023-01-08T09:00:06;97183.72;;;8.39;100.00
59106;BME280;44891;50.204;8.132;2023-01-08T09:04:08;97187.84;;;8.35;100.00
59106;BME280;44891;50.204;8.132;2023-01-08T09:08:10;97181.91;;;8.45;100.00
59106;BME280;44891;50.204;8.132;2023-01-08T09:12:14;97175.09;;;8.44;100.00
59106;BME280;44891;50.204;8.132;2023-01-08T09:16:16;97187.66;;;8.42;100.00
59106;BME280;44891;50.204;8.132;2023-01-08T09:20:17;97184.69;;;8.33;100.00
59106;BME280;44891;50.204;8.132;2023-01-08T09:24:19;97190.47;;;8.35;100.00
59106;BME280;44891;50.204;8.132;2023-01-08T09:28:22;97198.38;;;8.40;100.00
59106;BME280;44891;50.204;8.132;2023-01-08T09:32:24;97200.72;;;8.42;100.00
59106;BME280;44891;50.204;8.132;2023-01-08T09:36:26;97196.09;;;8.49;100.00
59106;BME280;44891;50.204;8.132;2023-01-08T09:40:30;97195.59;;;8.52;100.00
59106;BME280;44891;50.204;8.132;2023-01-08T09:44:34;97136.22;;;8.26;100.00
59106;BME280;44891;50.204;8.132;2023-01-08T09:48:38;97201.38;;;8.54;100.00
59106;BME280;44891;50.204;8.132;2023-01-08T09:52:40;97184.09;;;8.58;100.00
59106;BME280;44891;50.204;8.132;2023-01-08T09:56:42;97186.72;;;8.53;100.00
59106;BME280;44891;50.204;8.132;2023-01-08T10:00:46;97190.16;;;8.59;100.00
59106;BME280;44891;50.204;8.132;2023-01-08T10:04:50;97185.72;;;8.64;100.00
59106;BME280;44891;50.204;8.132;2023-01-08T10:08:53;97187.13;;;8.72;100.00
59106;BME280;44891;50.204;8.132;2023-01-08T10:12:55;97191.06;;;8.75;100.00
59106;BME280;44891;50.204;8.132;2023-01-08T10:16:59;97186.59;;;8.75;100.00
59106;BME280;44891;50.204;8.132;2023-01-08T10:21:03;97184.50;;;8.77;99.49
59106;BME280;44891;50.204;8.132;2023-01-08T10:25:06;97165.00;;;8.95;100.00
59106;BME280;44891;50.204;8.132;2023-01-08T10:29:10;97154.38;;;9.17;97.61
59106;BME280;44891;50.204;8.132;2023-01-08T10:33:17;97159.38;;;9.18;97.02
59106;BME280;44891;50.204;8.132;2023-01-08T10:37:21;97146.06;;;9.30;95.52
59106;BME280;44891;50.204;8.132;2023-01-08T10:41:24;97144.00;;;9.32;94.36
59106;BME280;44891;50.204;8.132;2023-01-08T10:45:27;97143.25;;;9.47;94.42
59106;BME280;44891;50.204;8.132;2023-01-08T10:49:31;97132.91;;;9.15;94.74
59106;BME280;44891;50.204;8.132;2023-01-08T10:53:34;97130.38;;;9.40;95.05
59106;BME280;44891;50.204;8.132;2023-01-08T10:57:38;97124.41;;;9.60;92.13
59106;BME280;44891;50.204;8.132;2023-01-08T11:01:44;97121.84;;;9.80;91.62
59106;BME280;44891;50.204;8.132;2023-01-08T11:05:48;97106.41;;;9.84;91.65
59106;BME280;44891;50.204;8.132;2023-01-08T11:09:50;97095.09;;;9.89;89.91
59106;BME280;44891;50.204;8.132;2023-01-08T11:13:54;97095.66;;;10.01;87.53
59106;BME280;44891;50.204;8.132;2023-01-08T11:18:04;97095.13;;;10.19;86.70
59106;BME280;44891;50.204;8.132;2023-01-08T11:22:16;97080.44;;;9.88;88.12
59106;BME280;44891;50.204;8.132;2023-01-08T11:26:19;97069.94;;;10.08;89.44
59106;BME280;44891;50.204;8.132;2023-01-08T11:30:22;97074.94;;;10.35;87.30
59106;BME280;44891;50.204;8.132;2023-01-08T11:34:27;97064.44;;;10.09;86.83
59106;BME280;44891;50.204;8.132;2023-01-08T11:38:31;97066.81;;;9.91;87.40
59106;BME280;44891;50.204;8.132;2023-01-08T11:42:36;97049.97;;;9.61;89.70
59106;BME280;44891;50.204;8.132;2023-01-08T11:46:43;97052.31;;;9.47;90.94
59106;BME280;44891;50.204;8.132;2023-01-08T11:50:57;97047.63;;;9.54;92.46
59106;BME280;44891;50.204;8.132;2023-01-08T11:55:19;97022.63;;;9.16;93.71
59106;BME280;44891;50.204;8.132;2023-01-08T11:59:26;97027.88;;;9.21;94.58
59106;BME280;44891;50.204;8.132;2023-01-08T12:03:34;97016.88;;;9.14;95.92
59106;BME280;44891;50.204;8.132;2023-01-08T12:07:39;97012.16;;;9.11;96.04
59106;BME280;44891;50.204;8.132;2023-01-08T12:11:49;97019.44;;;9.04;98.48
59106;BME280;44891;50.204;8.132;2023-01-08T12:15:56;97006.84;;;8.86;98.67
59106;BME280;44891;50.204;8.132;2023-01-08T12:20:05;96984.88;;;8.92;99.92
59106;BME280;44891;50.204;8.132;2023-01-08T12:24:18;96992.19;;;8.95;98.65
59106;BME280;44891;50.204;8.132;2023-01-08T12:28:29;96980.66;;;8.86;99.22
59106;BME280;44891;50.204;8.132;2023-01-08T12:32:35;96983.81;;;8.93;99.27
59106;BME280;44891;50.204;8.132;2023-01-08T12:36:41;96979.16;;;9.31;96.64
59106;BME280;44891;50.204;8.132;2023-01-08T12:40:46;96972.91;;;9.47;95.32
59106;BME280;44891;50.204;8.132;2023-01-08T12:44:52;96967.94;;;9.61;93.15
59106;BME280;44891;50.204;8.132;2023-01-08T12:48:55;96969.25;;;9.48;93.45
59106;BME280;44891;50.204;8.132;2023-01-08T12:52:58;96976.03;;;9.23;94.62
59106;BME280;44891;50.204;8.132;2023-01-08T12:57:04;96971.28;;;9.15;96.30
59106;BME280;44891;50.204;8.132;2023-01-08T13:01:22;96969.19;;;9.17;94.98
59106;BME280;44891;50.204;8.132;2023-01-08T13:05:30;96971.59;;;9.19;96.80
59106;BME280;44891;50.204;8.132;2023-01-08T13:09:33;96971.53;;;9.04;95.43
59106;BME280;44891;50.204;8.132;2023-01-08T13:13:35;96948.78;;;9.14;95.54
59106;BME280;44891;50.204;8.132;2023-01-08T13:17:40;96939.09;;;9.20;94.95
59106;BME280;44891;50.204;8.132;2023-01-08T13:21:49;96944.09;;;9.72;91.23
59106;BME280;44891;50.204;8.132;2023-01-08T13:25:52;96930.47;;;9.50;90.71
59106;BME280;44891;50.204;8.132;2023-01-08T13:29:54;96933.84;;;9.30;92.48
59106;BME280;44891;50.204;8.132;2023-01-08T13:33:58;96939.91;;;9.25;94.47
59106;BME280;44891;50.204;8.132;2023-01-08T13:38:10;96935.44;;;9.26;95.60
59106;BME280;44891;50.204;8.132;2023-01-08T13:42:20;96939.59;;;9.17;94.88
59106;BME280;44891;50.204;8.132;2023-01-08T13:46:22;96936.19;;;9.16;94.71
59106;BME280;44891;50.204;8.132;2023-01-08T13:50:26;96940.38;;;9.07;93.91
59106;BME280;44891;50.204;8.132;2023-01-08T13:54:31;96934.63;;;9.10;94.03
59106;BME280;44891;50.204;8.132;2023-01-08T13:58:35;96933.59;;;9.11;94.29
59106;BME280;44891;50.204;8.132;2023-01-08T14:02:42;96929.38;;;9.10;94.47
59106;BME280;44891;50.204;8.132;2023-01-08T14:06:50;96917.03;;;8.90;93.33
59106;BME280;44891;50.204;8.132;2023-01-08T14:10:52;96913.13;;;8.88;94.15
59106;BME280;44891;50.204;8.132;2023-01-08T14:14:55;96897.16;;;8.94;94.40
59106;BME280;44891;50.204;8.132;2023-01-08T14:18:59;96894.53;;;8.94;93.66
59106;BME280;44891;50.204;8.132;2023-01-08T14:23:07;96901.66;;;9.24;92.13
59106;BME280;44891;50.204;8.132;2023-01-08T14:27:18;96885.66;;;9.57;89.23
59106;BME280;44891;50.204;8.132;2023-01-08T14:31:21;96887.44;;;9.81;88.43
59106;BME280;44891;50.204;8.132;2023-01-08T14:35:27;96900.56;;;9.76;87.50
59106;BME280;44891;50.204;8.132;2023-01-08T14:39:33;96892.47;;;9.52;88.90
59106;BME280;44891;50.204;8.132;2023-01-08T14:43:38;96890.91;;;9.26;90.49
59106;BME280;44891;50.204;8.132;2023-01-08T14:47:42;96880.16;;;9.17;91.18
59106;BME280;44891;50.204;8.132;2023-01-08T14:51:45;96880.16;;;9.07;91.86
59106;BME280;44891;50.204;8.132;2023-01-08T14:55:48;96870.72;;;9.01;93.25
59106;BME280;44891;50.204;8.132;2023-01-08T14:59:52;96869.16;;;8.95;93.25
59106;BME280;44891;50.204;8.132;2023-01-08T15:04:03;96857.38;;;8.92;93.50
59106;BME280;44891;50.204;8.132;2023-01-08T15:08:20;96855.28;;;8.94;93.23
59106;BME280;44891;50.204;8.132;2023-01-08T15:12:25;96861.28;;;8.90;92.72
59106;BME280;44891;50.204;8.132;2023-01-08T15:16:28;96864.44;;;8.87;93.70
59106;BME280;44891;50.204;8.132;2023-01-08T15:20:31;96860.25;;;8.86;93.76
59106;BME280;44891;50.204;8.132;2023-01-08T15:24:34;96856.56;;;8.87;94.69
59106;BME280;44891;50.204;8.132;2023-01-08T15:28:44;96859.69;;;8.84;93.87
59106;BME280;44891;50.204;8.132;2023-01-08T15:32:46;96857.09;;;8.79;93.79
59106;BME280;44891;50.204;8.132;2023-01-08T15:36:47;96856.31;;;8.78;93.17
59106;BME280;44891;50.204;8.132;2023-01-08T15:40:49;96851.56;;;8.75;91.48
59106;BME280;44891;50.204;8.132;2023-01-08T15:44:54;96838.25;;;8.71;91.73
59106;BME280;44891;50.204;8.132;2023-01-08T15:48:55;96841.88;;;8.65;89.64
59106;BME280;44891;50.204;8.132;2023-01-08T15:52:57;96848.19;;;8.75;88.77
59106;BME280;44891;50.204;8.132;2023-01-08T15:57:00;96835.09;;;8.75;89.04
59106;BME280;44891;50.204;8.132;2023-01-08T16:01:03;96823.56;;;8.70;89.49
59106;BME280;44891;50.204;8.132;2023-01-08T16:05:06;96825.66;;;8.68;88.89
59106;BME280;44891;50.204;8.132;2023-01-08T16:09:07;96813.63;;;8.73;89.26
59106;BME280;44891;50.204;8.132;2023-01-08T16:13:09;96814.13;;;8.64;90.00
59106;BME280;44891;50.204;8.132;2023-01-08T16:17:12;96817.28;;;8.66;90.71
59106;BME280;44891;50.204;8.132;2023-01-08T16:21:14;96820.41;;;8.63;90.51
59106;BME280;44891;50.204;8.132;2023-01-08T16:25:16;96823.53;;;8.55;91.73
59106;BME280;44891;50.204;8.132;2023-01-08T16:29:18;96826.94;;;8.56;92.16
59106;BME280;44891;50.204;8.132;2023-01-08T16:33:22;96816.22;;;8.52;92.83
59106;BME280;44891;50.204;8.132;2023-01-08T16:37:24;96820.91;;;8.50;93.11
59106;BME280;44891;50.204;8.132;2023-01-08T16:41:26;96823.25;;;8.47;93.42
59106;BME280;44891;50.204;8.132;2023-01-08T16:45:28;96818.03;;;8.41;93.86
59106;BME280;44891;50.204;8.132;2023-01-08T16:49:31;96811.47;;;8.39;94.25
59106;BME280;44891;50.204;8.132;2023-01-08T16:53:35;96805.16;;;8.35;94.48
59106;BME280;44891;50.204;8.132;2023-01-08T16:57:37;96807.00;;;8.34;94.47
59106;BME280;44891;50.204;8.132;2023-01-08T17:01:39;96810.66;;;8.33;95.17
59106;BME280;44891;50.204;8.132;2023-01-08T17:05:42;96800.97;;;8.34;96.29
59106;BME280;44891;50.204;8.132;2023-01-08T17:09:44;96800.69;;;8.30;96.92
59106;BME280;44891;50.204;8.132;2023-01-08T17:13:46;96788.13;;;8.27;96.52
59106;BME280;44891;50.204;8.132;2023-01-08T17:17:48;96784.22;;;8.30;96.57
59106;BME280;44891;50.204;8.132;2023-01-08T17:21:51;96771.41;;;8.28;96.93
59106;BME280;44891;50.204;8.132;2023-01-08T17:25:53;96771.38;;;8.23;98.35
59106;BME280;44891;50.204;8.132;2023-01-08T17:29:55;96768.22;;;8.16;99.87
59106;BME280;44891;50.204;8.132;2023-01-08T17:33:57;96765.13;;;8.19;99.91
59106;BME280;44891;50.204;8.132;2023-01-08T17:38:00;96761.72;;;8.24;99.57
59106;BME280;44891;50.204;8.132;2023-01-08T17:42:01;96754.94;;;8.28;98.66
59106;BME280;44891;50.204;8.132;2023-01-08T17:46:21;96746.28;;;8.27;97.46
59106;BME280;44891;50.204;8.132;2023-01-08T17:50:24;96746.00;;;8.18;98.57
59106;BME280;44891;50.204;8.132;2023-01-08T17:54:27;96737.66;;;8.22;99.50
59106;BME280;44891;50.204;8.132;2023-01-08T17:58:29;96737.66;;;8.22;99.42
59106;BME280;44891;50.204;8.132;2023-01-08T18:02:31;96729.53;;;8.18;99.34
59106;BME280;44891;50.204;8.132;2023-01-08T18:06:33;96726.91;;;8.18;99.02
59106;BME280;44891;50.204;8.132;2023-01-08T18:10:37;96707.31;;;8.21;98.53
59106;BME280;44891;50.204;8.132;2023-01-08T18:14:39;96714.63;;;8.24;97.21
59106;BME280;44891;50.204;8.132;2023-01-08T18:18:41;96713.59;;;8.20;98.06
59106;BME280;44891;50.204;8.132;2023-01-08T18:22:43;96696.84;;;8.15;97.18
59106;BME280;44891;50.204;8.132;2023-01-08T18:26:47;96697.13;;;8.19;97.61
59106;BME280;44891;50.204;8.132;2023-01-08T18:30:48;96707.59;;;8.19;98.86
59106;BME280;44891;50.204;8.132;2023-01-08T18:34:50;96694.75;;;8.17;98.63
59106;BME280;44891;50.204;8.132;2023-01-08T18:38:52;96631.47;;;7.80;97.17
59106;BME280;44891;50.204;8.132;2023-01-08T18:42:56;96688.47;;;8.18;97.17
59106;BME280;44891;50.204;8.132;2023-01-08T18:46:58;96673.59;;;8.14;98.46
59106;BME280;44891;50.204;8.132;2023-01-08T18:51:00;96666.00;;;8.12;100.00
59106;BME280;44891;50.204;8.132;2023-01-08T18:55:05;96652.38;;;8.05;100.00
59106;BME280;44891;50.204;8.132;2023-01-08T18:59:09;96663.63;;;7.96;100.00
59106;BME280;44891;50.204;8.132;2023-01-08T19:03:11;96656.81;;;7.89;100.00
59106;BME280;44891;50.204;8.132;2023-01-08T19:07:12;96659.16;;;7.86;100.00
59106;BME280;44891;50.204;8.132;2023-01-08T19:11:14;96659.16;;;7.86;100.00
59106;BME280;44891;50.204;8.132;2023-01-08T19:15:18;96662.53;;;7.81;100.00
59106;BME280;44891;50.204;8.132;2023-01-08T19:19:20;96664.13;;;7.82;100.00
59106;BME280;44891;50.204;8.132;2023-01-08T19:23:22;96668.53;;;7.77;100.00
59106;BME280;44891;50.204;8.132;2023-01-08T19:27:24;96643.16;;;7.72;100.00
59106;BME280;44891;50.204;8.132;2023-01-08T19:31:27;96653.09;;;7.70;100.00
59106;BME280;44891;50.204;8.132;2023-01-08T19:35:29;96635.88;;;7.69;100.00
59106;BME280;44891;50.204;8.132;2023-01-08T19:39:31;96629.31;;;7.72;100.00
59106;BME280;44891;50.204;8.132;2023-01-08T19:43:33;96620.72;;;7.76;100.00
59106;BME280;44891;50.204;8.132;2023-01-08T19:47:45;96610.53;;;7.75;100.00
59106;BME280;44891;50.204;8.132;2023-01-08T19:51:47;96599.81;;;7.76;100.00
59106;BME280;44891;50.204;8.132;2023-01-08T19:55:48;96593.81;;;7.76;100.00
59106;BME280;44891;50.204;8.132;2023-01-08T19:59:50;96587.03;;;7.75;100.00
59106;BME280;44891;50.204;8.132;2023-01-08T20:03:54;96579.44;;;7.73;100.00
59106;BME280;44891;50.204;8.132;2023-01-08T20:07:56;96567.94;;;7.74;100.00
59106;BME280;44891;50.204;8.132;2023-01-08T20:11:58;96566.13;;;7.75;100.00
59106;BME280;44891;50.204;8.132;2023-01-08T20:15:59;96555.91;;;7.68;100.00
59106;BME280;44891;50.204;8.132;2023-01-08T20:20:03;96560.38;;;7.68;100.00
59106;BME280;44891;50.204;8.132;2023-01-08T20:24:05;96557.22;;;7.66;100.00
59106;BME280;44891;50.204;8.132;2023-01-08T20:28:09;96547.03;;;7.69;100.00
59106;BME280;44891;50.204;8.132;2023-01-08T20:32:11;96541.53;;;7.66;100.00
59106;BME280;44891;50.204;8.132;2023-01-08T20:36:16;96549.13;;;7.67;100.00
59106;BME280;44891;50.204;8.132;2023-01-08T20:40:18;96542.06;;;7.62;100.00
59106;BME280;44891;50.204;8.132;2023-01-08T20:44:20;96555.66;;;7.64;100.00
59106;BME280;44891;50.204;8.132;2023-01-08T20:48:22;96548.06;;;7.63;100.00
59106;BME280;44891;50.204;8.132;2023-01-08T20:52:27;96542.59;;;7.59;100.00
59106;BME280;44891;50.204;8.132;2023-01-08T20:56:29;96531.09;;;7.60;100.00
59106;BME280;44891;50.204;8.132;2023-01-08T21:00:31;96521.94;;;7.63;100.00
59106;BME280;44891;50.204;8.132;2023-01-08T21:04:33;96518.56;;;7.68;100.00
59106;BME280;44891;50.204;8.132;2023-01-08T21:08:39;96513.84;;;7.75;100.00
59106;BME280;44891;50.204;8.132;2023-01-08T21:12:41;96512.81;;;7.76;100.00
59106;BME280;44891;50.204;8.132;2023-01-08T21:16:43;96498.69;;;7.72;100.00
59106;BME280;44891;50.204;8.132;2023-01-08T21:20:44;96493.72;;;7.70;100.00
59106;BME280;44891;50.204;8.132;2023-01-08T21:24:48;96481.44;;;7.66;100.00
59106;BME280;44891;50.204;8.132;2023-01-08T21:28:49;96467.34;;;7.61;100.00
59106;BME280;44891;50.204;8.132;2023-01-08T21:32:51;96459.25;;;7.58;100.00
59106;BME280;44891;50.204;8.132;2023-01-08T21:36:53;96451.44;;;7.53;100.00